sensor_id;sensor_type;location;lat;lon;timestamp;P1;durP1;ratioP1;P2;durP2;ratioP2
37419;SDS011;47344;52.374;4.816;2023-02-28T00:01:10;13.1;;;5.2;;
37419;SDS011;47344;52.374;4.816;2023-02-28T00:02:47;7.9;;;4.5;;
37419;SDS011;47344;52.374;4.816;2023-02-28T00:04:24;11.5;;;4.61;;
37419;SDS011;47344;52.374;4.816;2023-02-28T00:07:37;11.2;;;4.5;;
37419;SDS011;47344;52.374;4.816;2023-02-28T00:09:14;12.1;;;4.91;;
37419;SDS011;47344;52.374;4.816;2023-02-28T00:10:50;11.5;;;4.5;;
37419;SDS011;47344;52.374;4.816;2023-02-28T00:12:26;11.2;;;4.3;;
37419;SDS011;47344;52.374;4.816;2023-02-28T00:17:15;11.5;;;4.7;;
37419;SDS011;47344;52.374;4.816;2023-02-28T00:18:51;13.8;;;4.91;;
37419;SDS011;47344;52.374;4.816;2023-02-28T00:22:03;12.3;;;4.91;;
37419;SDS011;47344;52.374;4.816;2023-02-28T00:23:39;13.5;;;4.91;;
37419;SDS011;47344;52.374;4.816;2023-02-28T00:25:17;12.0;;;4.61;;
37419;SDS011;47344;52.374;4.816;2023-02-28T00:28:31;16.11;;;5.11;;
37419;SDS011;47344;52.374;4.816;2023-02-28T00:30:09;15.5;;;5.4;;
37419;SDS011;47344;52.374;4.816;2023-02-28T00:31:51;15.1;;;5.2;;
37419;SDS011;47344;52.374;4.816;2023-02-28T00:33:27;15.5;;;5.5;;
37419;SDS011;47344;52.374;4.816;2023-02-28T00:36:42;15.5;;;5.3;;
37419;SDS011;47344;52.374;4.816;2023-02-28T00:38:18;14.3;;;4.8;;
37419;SDS011;47344;52.374;4.816;2023-02-28T00:39:55;11.7;;;4.41;;
37419;SDS011;47344;52.374;4.816;2023-02-28T00:43:08;11.3;;;4.5;;
37419;SDS011;47344;52.374;4.816;2023-02-28T00:44:44;15.6;;;5.3;;
37419;SDS011;47344;52.374;4.816;2023-02-28T00:46:20;13.2;;;4.61;;
37419;SDS011;47344;52.374;4.816;2023-02-28T00:47:56;10.6;;;4.7;;
37419;SDS011;47344;52.374;4.816;2023-02-28T00:51:09;13.9;;;4.8;;
37419;SDS011;47344;52.374;4.816;2023-02-28T00:52:45;13.5;;;4.8;;
37419;SDS011;47344;52.374;4.816;2023-02-28T00:54:22;14.2;;;5.2;;
37419;SDS011;47344;52.374;4.816;2023-02-28T00:57:35;14.2;;;5.2;;
37419;SDS011;47344;52.374;4.816;2023-02-28T00:59:11;14.3;;;4.5;;
37419;SDS011;47344;52.374;4.816;2023-02-28T01:00:49;13.8;;;4.61;;
37419;SDS011;47344;52.374;4.816;2023-02-28T01:04:02;13.1;;;4.41;;
37419;SDS011;47344;52.374;4.816;2023-02-28T01:05:38;13.9;;;4.41;;
37419;SDS011;47344;52.374;4.816;2023-02-28T01:07:14;13.3;;;4.41;;
37419;SDS011;47344;52.374;4.816;2023-02-28T01:08:50;12.1;;;4.61;;
37419;SDS011;47344;52.374;4.816;2023-02-28T01:12:04;14.2;;;4.7;;
37419;SDS011;47344;52.374;4.816;2023-02-28T01:13:40;13.8;;;4.41;;
37419;SDS011;47344;52.374;4.816;2023-02-28T01:15:17;15.1;;;5.3;;
37419;SDS011;47344;52.374;4.816;2023-02-28T01:18:29;13.4;;;5.0;;
37419;SDS011;47344;52.374;4.816;2023-02-28T01:20:06;12.1;;;4.8;;
37419;SDS011;47344;52.374;4.816;2023-02-28T01:21:42;18.0;;;5.5;;
37419;SDS011;47344;52.374;4.816;2023-02-28T01:24:55;10.9;;;4.8;;
37419;SDS011;47344;52.374;4.816;2023-02-28T01:26:32;15.1;;;5.2;;
37419;SDS011;47344;52.374;4.816;2023-02-28T01:28:08;13.9;;;5.4;;
37419;SDS011;47344;52.374;4.816;2023-02-28T01:29:44;15.9;;;5.3;;
37419;SDS011;47344;52.374;4.816;2023-02-28T01:32:58;12.0;;;5.11;;
37419;SDS011;47344;52.374;4.816;2023-02-28T01:34:35;14.2;;;5.2;;
37419;SDS011;47344;52.374;4.816;2023-02-28T01:36:13;11.5;;;4.3;;
37419;SDS011;47344;52.374;4.816;2023-02-28T01:39:27;12.3;;;4.3;;
37419;SDS011;47344;52.374;4.816;2023-02-28T01:41:03;13.5;;;4.7;;
37419;SDS011;47344;52.374;4.816;2023-02-28T01:42:40;10.6;;;4.41;;
37419;SDS011;47344;52.374;4.816;2023-02-28T01:47:01;10.7;;;4.3;;
37419;SDS011;47344;52.374;4.816;2023-02-28T01:48:38;12.9;;;4.5;;
37419;SDS011;47344;52.374;4.816;2023-02-28T01:51:58;12.6;;;4.41;;
37419;SDS011;47344;52.374;4.816;2023-02-28T01:53:34;11.9;;;4.0;;
37419;SDS011;47344;52.374;4.816;2023-02-28T01:55:17;13.4;;;4.8;;
37419;SDS011;47344;52.374;4.816;2023-02-28T01:56:58;11.9;;;4.3;;
37419;SDS011;47344;52.374;4.816;2023-02-28T02:00:17;10.1;;;4.3;;
37419;SDS011;47344;52.374;4.816;2023-02-28T02:01:59;9.71;;;4.0;;
37419;SDS011;47344;52.374;4.816;2023-02-28T02:03:36;9.71;;;4.0;;
37419;SDS011;47344;52.374;4.816;2023-02-28T02:06:53;9.5;;;4.41;;
37419;SDS011;47344;52.374;4.816;2023-02-28T02:08:30;11.3;;;4.41;;
37419;SDS011;47344;52.374;4.816;2023-02-28T02:10:10;10.3;;;4.41;;
37419;SDS011;47344;52.374;4.816;2023-02-28T02:11:50;10.6;;;4.0;;
37419;SDS011;47344;52.374;4.816;2023-02-28T02:15:29;11.4;;;4.1;;
37419;SDS011;47344;52.374;4.816;2023-02-28T02:17:14;12.0;;;4.3;;
37419;SDS011;47344;52.374;4.816;2023-02-28T02:19:02;10.5;;;4.1;;
37419;SDS011;47344;52.374;4.816;2023-02-28T02:24:47;14.5;;;5.0;;
37419;SDS011;47344;52.374;4.816;2023-02-28T02:27:14;12.2;;;4.3;;
37419;SDS011;47344;52.374;4.816;2023-02-28T02:29:49;12.3;;;4.5;;
37419;SDS011;47344;52.374;4.816;2023-02-28T02:33:09;11.8;;;4.41;;
37419;SDS011;47344;52.374;4.816;2023-02-28T02:35:27;10.0;;;4.41;;
37419;SDS011;47344;52.374;4.816;2023-02-28T02:37:11;11.0;;;4.3;;
37419;SDS011;47344;52.374;4.816;2023-02-28T02:38:56;11.2;;;4.2;;
37419;SDS011;47344;52.374;4.816;2023-02-28T02:42:31;11.2;;;4.2;;
37419;SDS011;47344;52.374;4.816;2023-02-28T02:44:17;10.21;;;3.9;;
37419;SDS011;47344;52.374;4.816;2023-02-28T02:45:58;9.81;;;4.1;;
37419;SDS011;47344;52.374;4.816;2023-02-28T02:47:40;12.3;;;4.1;;
37419;SDS011;47344;52.374;4.816;2023-02-28T02:49:19;9.1;;;3.9;;
37419;SDS011;47344;52.374;4.816;2023-02-28T02:52:42;8.81;;;3.6;;
37419;SDS011;47344;52.374;4.816;2023-02-28T02:54:32;10.4;;;3.5;;
37419;SDS011;47344;52.374;4.816;2023-02-28T02:56:12;8.5;;;3.7;;
37419;SDS011;47344;52.374;4.816;2023-02-28T02:57:51;7.6;;;3.2;;
37419;SDS011;47344;52.374;4.816;2023-02-28T03:01:14;9.0;;;3.6;;
37419;SDS011;47344;52.374;4.816;2023-02-28T03:02:54;7.3;;;3.1;;
37419;SDS011;47344;52.374;4.816;2023-02-28T03:04:33;8.0;;;3.5;;
37419;SDS011;47344;52.374;4.816;2023-02-28T03:06:17;10.8;;;3.5;;
37419;SDS011;47344;52.374;4.816;2023-02-28T03:09:32;8.81;;;3.5;;
37419;SDS011;47344;52.374;4.816;2023-02-28T03:11:11;9.31;;;3.9;;
37419;SDS011;47344;52.374;4.816;2023-02-28T03:12:51;8.81;;;3.9;;
37419;SDS011;47344;52.374;4.816;2023-02-28T03:14:43;8.81;;;4.1;;
37419;SDS011;47344;52.374;4.816;2023-02-28T03:16:33;10.6;;;4.2;;
37419;SDS011;47344;52.374;4.816;2023-02-28T03:20:05;11.2;;;4.2;;
37419;SDS011;47344;52.374;4.816;2023-02-28T03:21:53;10.5;;;4.3;;
37419;SDS011;47344;52.374;4.816;2023-02-28T03:23:42;9.9;;;4.5;;
37419;SDS011;47344;52.374;4.816;2023-02-28T03:25:28;12.5;;;4.8;;
37419;SDS011;47344;52.374;4.816;2023-02-28T03:27:12;14.1;;;4.61;;
37419;SDS011;47344;52.374;4.816;2023-02-28T03:30:42;13.0;;;4.5;;
37419;SDS011;47344;52.374;4.816;2023-02-28T03:32:25;11.6;;;4.61;;
37419;SDS011;47344;52.374;4.816;2023-02-28T03:34:10;14.7;;;4.91;;
37419;SDS011;47344;52.374;4.816;2023-02-28T03:35:55;14.3;;;5.4;;
37419;SDS011;47344;52.374;4.816;2023-02-28T03:37:35;13.1;;;5.11;;
37419;SDS011;47344;52.374;4.816;2023-02-28T03:40:58;13.1;;;5.11;;
37419;SDS011;47344;52.374;4.816;2023-02-28T03:42:41;12.3;;;4.91;;
37419;SDS011;47344;52.374;4.816;2023-02-28T03:44:22;11.2;;;4.7;;
37419;SDS011;47344;52.374;4.816;2023-02-28T03:46:06;11.8;;;4.8;;
37419;SDS011;47344;52.374;4.816;2023-02-28T03:49:29;12.7;;;4.91;;
37419;SDS011;47344;52.374;4.816;2023-02-28T03:51:10;12.3;;;4.91;;
37419;SDS011;47344;52.374;4.816;2023-02-28T03:52:53;13.3;;;5.11;;
37419;SDS011;47344;52.374;4.816;2023-02-28T03:54:38;11.4;;;5.2;;
37419;SDS011;47344;52.374;4.816;2023-02-28T03:56:22;12.3;;;5.2;;
37419;SDS011;47344;52.374;4.816;2023-02-28T03:59:52;13.5;;;5.6;;
37419;SDS011;47344;52.374;4.816;2023-02-28T04:01:35;13.0;;;5.8;;
37419;SDS011;47344;52.374;4.816;2023-02-28T04:03:16;12.7;;;5.3;;
37419;SDS011;47344;52.374;4.816;2023-02-28T04:04:52;12.9;;;5.5;;
37419;SDS011;47344;52.374;4.816;2023-02-28T04:08:08;12.8;;;6.1;;
37419;SDS011;47344;52.374;4.816;2023-02-28T04:09:44;15.8;;;6.6;;
37419;SDS011;47344;52.374;4.816;2023-02-28T04:11:22;11.1;;;5.8;;
37419;SDS011;47344;52.374;4.816;2023-02-28T04:13:02;14.7;;;6.3;;
37419;SDS011;47344;52.374;4.816;2023-02-28T04:16:14;15.3;;;6.3;;
37419;SDS011;47344;52.374;4.816;2023-02-28T04:17:51;16.2;;;6.2;;
37419;SDS011;47344;52.374;4.816;2023-02-28T04:19:28;15.6;;;6.2;;
37419;SDS011;47344;52.374;4.816;2023-02-28T04:22:41;16.9;;;7.0;;
37419;SDS011;47344;52.374;4.816;2023-02-28T04:24:17;14.3;;;6.3;;
37419;SDS011;47344;52.374;4.816;2023-02-28T04:25:56;13.8;;;5.8;;
37419;SDS011;47344;52.374;4.816;2023-02-28T04:27:32;14.6;;;5.6;;
37419;SDS011;47344;52.374;4.816;2023-02-28T04:30:53;13.9;;;6.5;;
37419;SDS011;47344;52.374;4.816;2023-02-28T04:32:31;14.9;;;6.0;;
37419;SDS011;47344;52.374;4.816;2023-02-28T04:34:07;12.5;;;6.0;;
37419;SDS011;47344;52.374;4.816;2023-02-28T04:37:19;12.0;;;5.6;;
37419;SDS011;47344;52.374;4.816;2023-02-28T04:38:55;10.9;;;5.5;;
37419;SDS011;47344;52.374;4.816;2023-02-28T04:40:32;12.3;;;5.8;;
37419;SDS011;47344;52.374;4.816;2023-02-28T04:43:46;13.2;;;5.5;;
37419;SDS011;47344;52.374;4.816;2023-02-28T04:45:22;12.7;;;5.5;;
37419;SDS011;47344;52.374;4.816;2023-02-28T04:46:58;10.21;;;5.8;;
37419;SDS011;47344;52.374;4.816;2023-02-28T04:48:35;10.21;;;4.61;;
37419;SDS011;47344;52.374;4.816;2023-02-28T04:51:49;8.1;;;4.3;;
37419;SDS011;47344;52.374;4.816;2023-02-28T04:53:26;9.31;;;4.3;;
37419;SDS011;47344;52.374;4.816;2023-02-28T04:55:04;8.4;;;3.8;;
37419;SDS011;47344;52.374;4.816;2023-02-28T04:58:18;7.4;;;3.3;;
37419;SDS011;47344;52.374;4.816;2023-02-28T04:59:54;6.7;;;3.3;;
37419;SDS011;47344;52.374;4.816;2023-02-28T05:01:31;8.31;;;3.6;;
37419;SDS011;47344;52.374;4.816;2023-02-28T05:03:08;8.5;;;3.6;;
37419;SDS011;47344;52.374;4.816;2023-02-28T05:06:21;6.7;;;3.6;;
37419;SDS011;47344;52.374;4.816;2023-02-28T05:07:59;7.7;;;3.8;;
37419;SDS011;47344;52.374;4.816;2023-02-28T05:09:35;9.5;;;3.6;;
37419;SDS011;47344;52.374;4.816;2023-02-28T05:12:52;6.9;;;3.8;;
37419;SDS011;47344;52.374;4.816;2023-02-28T05:14:28;9.5;;;3.8;;
37419;SDS011;47344;52.374;4.816;2023-02-28T05:16:05;10.1;;;4.3;;
37419;SDS011;47344;52.374;4.816;2023-02-28T05:19:19;7.7;;;4.3;;
37419;SDS011;47344;52.374;4.816;2023-02-28T05:20:55;7.9;;;4.2;;
37419;SDS011;47344;52.374;4.816;2023-02-28T05:22:31;9.0;;;4.61;;
37419;SDS011;47344;52.374;4.816;2023-02-28T05:24:09;7.4;;;4.8;;
37419;SDS011;47344;52.374;4.816;2023-02-28T05:27:23;10.9;;;4.61;;
37419;SDS011;47344;52.374;4.816;2023-02-28T05:28:59;9.5;;;4.8;;
37419;SDS011;47344;52.374;4.816;2023-02-28T05:30:36;7.1;;;4.7;;
37419;SDS011;47344;52.374;4.816;2023-02-28T05:33:49;9.9;;;4.7;;
37419;SDS011;47344;52.374;4.816;2023-02-28T05:35:26;10.6;;;5.11;;
37419;SDS011;47344;52.374;4.816;2023-02-28T05:37:02;6.5;;;4.5;;
37419;SDS011;47344;52.374;4.816;2023-02-28T05:40:14;8.81;;;4.61;;
37419;SDS011;47344;52.374;4.816;2023-02-28T05:41:52;10.1;;;5.2;;
37419;SDS011;47344;52.374;4.816;2023-02-28T05:43:28;7.5;;;4.5;;
37419;SDS011;47344;52.374;4.816;2023-02-28T05:45:04;8.9;;;5.2;;
37419;SDS011;47344;52.374;4.816;2023-02-28T05:48:17;11.4;;;5.4;;
37419;SDS011;47344;52.374;4.816;2023-02-28T05:49:53;9.31;;;5.11;;
37419;SDS011;47344;52.374;4.816;2023-02-28T05:54:42;10.4;;;5.5;;
37419;SDS011;47344;52.374;4.816;2023-02-28T05:56:18;9.9;;;6.3;;
37419;SDS011;47344;52.374;4.816;2023-02-28T05:57:54;12.2;;;6.7;;
37419;SDS011;47344;52.374;4.816;2023-02-28T06:01:30;14.4;;;6.4;;
37419;SDS011;47344;52.374;4.816;2023-02-28T06:03:08;8.71;;;6.3;;
37419;SDS011;47344;52.374;4.816;2023-02-28T06:04:45;10.5;;;6.4;;
37419;SDS011;47344;52.374;4.816;2023-02-28T06:06:22;10.5;;;7.0;;
37419;SDS011;47344;52.374;4.816;2023-02-28T06:07:58;8.9;;;6.3;;
37419;SDS011;47344;52.374;4.816;2023-02-28T06:11:11;11.7;;;7.7;;
37419;SDS011;47344;52.374;4.816;2023-02-28T06:12:48;8.71;;;6.4;;
37419;SDS011;47344;52.374;4.816;2023-02-28T06:14:24;12.6;;;7.4;;
37419;SDS011;47344;52.374;4.816;2023-02-28T06:17:37;10.7;;;7.6;;
37419;SDS011;47344;52.374;4.816;2023-02-28T06:19:13;13.0;;;7.9;;
37419;SDS011;47344;52.374;4.816;2023-02-28T06:20:52;12.7;;;8.1;;
37419;SDS011;47344;52.374;4.816;2023-02-28T06:24:04;12.5;;;8.81;;
37419;SDS011;47344;52.374;4.816;2023-02-28T06:25:44;14.3;;;8.4;;
37419;SDS011;47344;52.374;4.816;2023-02-28T06:27:20;14.3;;;8.4;;
37419;SDS011;47344;52.374;4.816;2023-02-28T06:28:57;14.9;;;10.1;;
37419;SDS011;47344;52.374;4.816;2023-02-28T06:32:09;15.1;;;10.8;;
37419;SDS011;47344;52.374;4.816;2023-02-28T06:33:45;16.9;;;12.0;;
37419;SDS011;47344;52.374;4.816;2023-02-28T06:35:22;17.7;;;11.9;;
37419;SDS011;47344;52.374;4.816;2023-02-28T06:38:36;18.61;;;13.7;;
37419;SDS011;47344;52.374;4.816;2023-02-28T06:40:14;17.11;;;13.5;;
37419;SDS011;47344;52.374;4.816;2023-02-28T06:41:51;19.2;;;14.2;;
37419;SDS011;47344;52.374;4.816;2023-02-28T06:45:05;19.91;;;13.2;;
37419;SDS011;47344;52.374;4.816;2023-02-28T06:46:43;18.91;;;14.3;;
37419;SDS011;47344;52.374;4.816;2023-02-28T06:48:20;18.2;;;14.0;;
37419;SDS011;47344;52.374;4.816;2023-02-28T06:49:56;18.61;;;13.9;;
37419;SDS011;47344;52.374;4.816;2023-02-28T06:53:09;20.8;;;16.11;;
37419;SDS011;47344;52.374;4.816;2023-02-28T06:54:45;20.8;;;16.2;;
37419;SDS011;47344;52.374;4.816;2023-02-28T06:56:21;21.7;;;16.2;;
37419;SDS011;47344;52.374;4.816;2023-02-28T06:59:34;23.5;;;17.41;;
37419;SDS011;47344;52.374;4.816;2023-02-28T07:01:10;21.2;;;17.11;;
37419;SDS011;47344;52.374;4.816;2023-02-28T07:02:49;22.8;;;16.7;;
37419;SDS011;47344;52.374;4.816;2023-02-28T07:06:01;26.3;;;17.7;;
37419;SDS011;47344;52.374;4.816;2023-02-28T07:07:38;22.6;;;16.9;;
37419;SDS011;47344;52.374;4.816;2023-02-28T07:09:15;22.7;;;17.61;;
37419;SDS011;47344;52.374;4.816;2023-02-28T07:10:52;24.7;;;18.3;;
37419;SDS011;47344;52.374;4.816;2023-02-28T07:14:05;24.6;;;18.5;;
37419;SDS011;47344;52.374;4.816;2023-02-28T07:15:41;29.3;;;21.4;;
37419;SDS011;47344;52.374;4.816;2023-02-28T07:17:17;23.0;;;18.2;;
37419;SDS011;47344;52.374;4.816;2023-02-28T07:20:29;23.3;;;16.5;;
37419;SDS011;47344;52.374;4.816;2023-02-28T07:22:07;18.61;;;13.9;;
37419;SDS011;47344;52.374;4.816;2023-02-28T07:23:44;15.4;;;11.8;;
37419;SDS011;47344;52.374;4.816;2023-02-28T07:26:56;19.11;;;14.8;;
37419;SDS011;47344;52.374;4.816;2023-02-28T07:28:33;17.3;;;14.2;;
37419;SDS011;47344;52.374;4.816;2023-02-28T07:30:09;20.0;;;14.2;;
37419;SDS011;47344;52.374;4.816;2023-02-28T07:31:46;17.61;;;14.0;;
37419;SDS011;47344;52.374;4.816;2023-02-28T07:34:58;16.0;;;13.5;;
37419;SDS011;47344;52.374;4.816;2023-02-28T07:36:34;19.0;;;13.0;;
37419;SDS011;47344;52.374;4.816;2023-02-28T07:38:11;15.2;;;12.3;;
37419;SDS011;47344;52.374;4.816;2023-02-28T07:41:23;17.8;;;13.5;;
37419;SDS011;47344;52.374;4.816;2023-02-28T07:42:59;14.1;;;12.6;;
37419;SDS011;47344;52.374;4.816;2023-02-28T07:44:36;15.7;;;12.2;;
37419;SDS011;47344;52.374;4.816;2023-02-28T07:47:51;12.7;;;10.5;;
37419;SDS011;47344;52.374;4.816;2023-02-28T07:49:29;16.4;;;12.9;;
37419;SDS011;47344;52.374;4.816;2023-02-28T07:51:05;14.4;;;12.0;;
37419;SDS011;47344;52.374;4.816;2023-02-28T07:52:41;13.1;;;10.0;;
37419;SDS011;47344;52.374;4.816;2023-02-28T07:55:55;13.3;;;11.2;;
37419;SDS011;47344;52.374;4.816;2023-02-28T07:57:31;16.7;;;12.1;;
37419;SDS011;47344;52.374;4.816;2023-02-28T07:59:07;13.5;;;10.9;;
37419;SDS011;47344;52.374;4.816;2023-02-28T08:02:20;13.5;;;10.8;;
37419;SDS011;47344;52.374;4.816;2023-02-28T08:03:56;13.8;;;11.0;;
37419;SDS011;47344;52.374;4.816;2023-02-28T08:05:32;12.4;;;10.0;;
37419;SDS011;47344;52.374;4.816;2023-02-28T08:08:44;11.9;;;9.0;;
37419;SDS011;47344;52.374;4.816;2023-02-28T08:10:20;14.3;;;12.0;;
37419;SDS011;47344;52.374;4.816;2023-02-28T08:11:57;14.3;;;12.0;;
37419;SDS011;47344;52.374;4.816;2023-02-28T08:13:33;17.2;;;12.9;;
37419;SDS011;47344;52.374;4.816;2023-02-28T08:16:46;16.4;;;12.4;;
37419;SDS011;47344;52.374;4.816;2023-02-28T08:18:23;13.3;;;11.8;;
37419;SDS011;47344;52.374;4.816;2023-02-28T08:19:59;15.7;;;12.8;;
37419;SDS011;47344;52.374;4.816;2023-02-28T08:23:12;17.2;;;13.8;;
37419;SDS011;47344;52.374;4.816;2023-02-28T08:24:49;14.0;;;12.5;;
37419;SDS011;47344;52.374;4.816;2023-02-28T08:26:25;14.2;;;12.3;;
37419;SDS011;47344;52.374;4.816;2023-02-28T08:29:37;17.7;;;13.9;;
37419;SDS011;47344;52.374;4.816;2023-02-28T08:31:15;15.6;;;14.0;;
37419;SDS011;47344;52.374;4.816;2023-02-28T08:32:53;13.4;;;12.0;;
37419;SDS011;47344;52.374;4.816;2023-02-28T08:34:29;15.1;;;12.5;;
37419;SDS011;47344;52.374;4.816;2023-02-28T08:37:43;14.6;;;11.7;;
37419;SDS011;47344;52.374;4.816;2023-02-28T08:39:19;12.5;;;10.6;;
37419;SDS011;47344;52.374;4.816;2023-02-28T08:40:57;13.8;;;11.5;;
37419;SDS011;47344;52.374;4.816;2023-02-28T08:44:11;14.3;;;12.3;;
37419;SDS011;47344;52.374;4.816;2023-02-28T08:45:50;14.3;;;12.9;;
37419;SDS011;47344;52.374;4.816;2023-02-28T08:47:27;15.5;;;13.6;;
37419;SDS011;47344;52.374;4.816;2023-02-28T08:49:03;17.8;;;14.7;;
37419;SDS011;47344;52.374;4.816;2023-02-28T08:52:15;14.2;;;12.7;;
37419;SDS011;47344;52.374;4.816;2023-02-28T08:53:53;13.5;;;12.1;;
37419;SDS011;47344;52.374;4.816;2023-02-28T08:55:30;11.8;;;10.5;;
37419;SDS011;47344;52.374;4.816;2023-02-28T08:58:42;14.9;;;12.7;;
37419;SDS011;47344;52.374;4.816;2023-02-28T09:00:21;14.1;;;11.7;;
37419;SDS011;47344;52.374;4.816;2023-02-28T09:01:57;15.9;;;12.1;;
37419;SDS011;47344;52.374;4.816;2023-02-28T09:05:10;12.5;;;10.4;;
37419;SDS011;47344;52.374;4.816;2023-02-28T09:06:46;15.3;;;13.5;;
37419;SDS011;47344;52.374;4.816;2023-02-28T09:08:22;13.9;;;12.4;;
37419;SDS011;47344;52.374;4.816;2023-02-28T09:09:59;13.7;;;11.8;;
37419;SDS011;47344;52.374;4.816;2023-02-28T09:13:12;10.5;;;9.21;;
37419;SDS011;47344;52.374;4.816;2023-02-28T09:14:48;9.5;;;8.5;;
37419;SDS011;47344;52.374;4.816;2023-02-28T09:16:24;9.9;;;8.4;;
37419;SDS011;47344;52.374;4.816;2023-02-28T09:19:37;10.1;;;9.0;;
37419;SDS011;47344;52.374;4.816;2023-02-28T09:21:14;9.31;;;8.31;;
37419;SDS011;47344;52.374;4.816;2023-02-28T09:22:52;9.0;;;8.0;;
37419;SDS011;47344;52.374;4.816;2023-02-28T09:26:04;12.3;;;10.1;;
37419;SDS011;47344;52.374;4.816;2023-02-28T09:27:41;12.7;;;10.5;;
37419;SDS011;47344;52.374;4.816;2023-02-28T09:29:17;13.9;;;11.3;;
37419;SDS011;47344;52.374;4.816;2023-02-28T09:30:54;13.1;;;10.1;;
37419;SDS011;47344;52.374;4.816;2023-02-28T09:34:07;16.5;;;9.5;;
37419;SDS011;47344;52.374;4.816;2023-02-28T09:35:43;13.5;;;8.31;;
37419;SDS011;47344;52.374;4.816;2023-02-28T09:37:19;18.5;;;9.81;;
37419;SDS011;47344;52.374;4.816;2023-02-28T09:40:32;20.7;;;8.6;;
37419;SDS011;47344;52.374;4.816;2023-02-28T09:42:17;15.9;;;8.81;;
37419;SDS011;47344;52.374;4.816;2023-02-28T09:44:05;14.2;;;8.4;;
37419;SDS011;47344;52.374;4.816;2023-02-28T09:45:50;10.0;;;8.31;;
37419;SDS011;47344;52.374;4.816;2023-02-28T09:49:12;13.2;;;8.31;;
37419;SDS011;47344;52.374;4.816;2023-02-28T09:50:52;12.1;;;8.71;;
37419;SDS011;47344;52.374;4.816;2023-02-28T09:52:36;12.3;;;9.21;;
37419;SDS011;47344;52.374;4.816;2023-02-28T09:54:14;10.4;;;7.9;;
37419;SDS011;47344;52.374;4.816;2023-02-28T09:57:35;9.1;;;7.7;;
37419;SDS011;47344;52.374;4.816;2023-02-28T09:59:18;10.8;;;7.9;;
37419;SDS011;47344;52.374;4.816;2023-02-28T10:01:18;10.9;;;7.3;;
37419;SDS011;47344;52.374;4.816;2023-02-28T10:03:13;8.5;;;6.7;;
37419;SDS011;47344;52.374;4.816;2023-02-28T10:05:02;10.21;;;7.0;;
37419;SDS011;47344;52.374;4.816;2023-02-28T10:06:44;10.4;;;6.3;;
37419;SDS011;47344;52.374;4.816;2023-02-28T10:10:07;6.9;;;4.8;;
37419;SDS011;47344;52.374;4.816;2023-02-28T10:11:57;9.0;;;4.1;;
37419;SDS011;47344;52.374;4.816;2023-02-28T10:13:42;8.1;;;4.1;;
37419;SDS011;47344;52.374;4.816;2023-02-28T10:15:30;7.1;;;4.1;;
37419;SDS011;47344;52.374;4.816;2023-02-28T10:17:08;6.5;;;3.7;;
37419;SDS011;47344;52.374;4.816;2023-02-28T10:20:35;6.1;;;3.4;;
37419;SDS011;47344;52.374;4.816;2023-02-28T10:22:15;7.5;;;3.8;;
37419;SDS011;47344;52.374;4.816;2023-02-28T10:23:59;6.0;;;3.7;;
37419;SDS011;47344;52.374;4.816;2023-02-28T10:25:54;8.0;;;3.8;;
37419;SDS011;47344;52.374;4.816;2023-02-28T10:27:34;6.6;;;4.3;;
37419;SDS011;47344;52.374;4.816;2023-02-28T10:30:47;9.81;;;4.5;;
37419;SDS011;47344;52.374;4.816;2023-02-28T10:32:26;7.5;;;4.61;;
37419;SDS011;47344;52.374;4.816;2023-02-28T10:34:07;6.0;;;3.8;;
37419;SDS011;47344;52.374;4.816;2023-02-28T10:35:47;6.4;;;4.0;;
37419;SDS011;47344;52.374;4.816;2023-02-28T10:39:01;7.9;;;3.9;;
37419;SDS011;47344;52.374;4.816;2023-02-28T10:41:11;7.2;;;3.4;;
37419;SDS011;47344;52.374;4.816;2023-02-28T10:42:54;5.7;;;3.4;;
37419;SDS011;47344;52.374;4.816;2023-02-28T10:44:34;5.9;;;3.4;;
37419;SDS011;47344;52.374;4.816;2023-02-28T10:47:52;5.11;;;3.6;;
37419;SDS011;47344;52.374;4.816;2023-02-28T10:49:30;6.3;;;3.4;;
37419;SDS011;47344;52.374;4.816;2023-02-28T10:51:07;5.3;;;3.4;;
37419;SDS011;47344;52.374;4.816;2023-02-28T10:52:45;6.2;;;3.4;;
37419;SDS011;47344;52.374;4.816;2023-02-28T10:56:03;5.7;;;3.3;;
37419;SDS011;47344;52.374;4.816;2023-02-28T10:57:49;5.0;;;3.1;;
37419;SDS011;47344;52.374;4.816;2023-02-28T10:59:27;6.1;;;3.1;;
37419;SDS011;47344;52.374;4.816;2023-02-28T11:04:34;8.0;;;3.3;;
37419;SDS011;47344;52.374;4.816;2023-02-28T11:06:14;5.6;;;3.1;;
37419;SDS011;47344;52.374;4.816;2023-02-28T11:07:54;4.91;;;3.1;;
37419;SDS011;47344;52.374;4.816;2023-02-28T11:09:34;7.1;;;3.2;;
37419;SDS011;47344;52.374;4.816;2023-02-28T11:12:53;5.5;;;2.9;;
37419;SDS011;47344;52.374;4.816;2023-02-28T11:14:31;5.2;;;2.9;;
37419;SDS011;47344;52.374;4.816;2023-02-28T11:16:30;6.3;;;3.1;;
37419;SDS011;47344;52.374;4.816;2023-02-28T11:18:18;4.7;;;2.8;;
37419;SDS011;47344;52.374;4.816;2023-02-28T11:19:59;4.7;;;2.7;;
37419;SDS011;47344;52.374;4.816;2023-02-28T11:23:24;3.8;;;2.8;;
37419;SDS011;47344;52.374;4.816;2023-02-28T11:25:06;5.11;;;2.4;;
37419;SDS011;47344;52.374;4.816;2023-02-28T11:26:46;3.8;;;2.5;;
37419;SDS011;47344;52.374;4.816;2023-02-28T11:28:26;6.8;;;3.4;;
37419;SDS011;47344;52.374;4.816;2023-02-28T11:32:01;5.3;;;3.2;;
37419;SDS011;47344;52.374;4.816;2023-02-28T11:33:48;4.61;;;2.4;;
37419;SDS011;47344;52.374;4.816;2023-02-28T11:35:28;4.0;;;2.31;;
37419;SDS011;47344;52.374;4.816;2023-02-28T11:37:10;6.4;;;2.8;;
37419;SDS011;47344;52.374;4.816;2023-02-28T11:38:50;5.5;;;2.1;;
37419;SDS011;47344;52.374;4.816;2023-02-28T11:42:23;4.1;;;2.31;;
37419;SDS011;47344;52.374;4.816;2023-02-28T11:45:17;4.91;;;2.6;;
37419;SDS011;47344;52.374;4.816;2023-02-28T11:47:15;3.6;;;2.5;;
37419;SDS011;47344;52.374;4.816;2023-02-28T11:49:02;4.41;;;2.21;;
37419;SDS011;47344;52.374;4.816;2023-02-28T11:52:43;4.5;;;2.21;;
37419;SDS011;47344;52.374;4.816;2023-02-28T11:54:27;3.6;;;2.21;;
37419;SDS011;47344;52.374;4.816;2023-02-28T11:56:29;2.8;;;2.1;;
37419;SDS011;47344;52.374;4.816;2023-02-28T11:58:41;4.5;;;2.1;;
37419;SDS011;47344;52.374;4.816;2023-02-28T12:00:30;3.7;;;2.21;;
37419;SDS011;47344;52.374;4.816;2023-02-28T12:02:22;4.61;;;2.5;;
37419;SDS011;47344;52.374;4.816;2023-02-28T12:04:04;3.6;;;2.31;;
37419;SDS011;47344;52.374;4.816;2023-02-28T12:05:58;5.3;;;2.8;;
37419;SDS011;47344;52.374;4.816;2023-02-28T12:07:56;4.5;;;2.6;;
37419;SDS011;47344;52.374;4.816;2023-02-28T12:11:40;4.0;;;2.5;;
37419;SDS011;47344;52.374;4.816;2023-02-28T12:13:28;4.8;;;2.31;;
37419;SDS011;47344;52.374;4.816;2023-02-28T12:15:16;4.2;;;2.4;;
37419;SDS011;47344;52.374;4.816;2023-02-28T12:18:25;3.5;;;2.21;;
37419;SDS011;47344;52.374;4.816;2023-02-28T12:20:28;2.8;;;2.21;;
37419;SDS011;47344;52.374;4.816;2023-02-28T12:24:08;3.4;;;2.4;;
37419;SDS011;47344;52.374;4.816;2023-02-28T12:26:27;3.5;;;2.4;;
37419;SDS011;47344;52.374;4.816;2023-02-28T12:28:13;4.8;;;2.5;;
37419;SDS011;47344;52.374;4.816;2023-02-28T12:29:54;2.4;;;2.21;;
37419;SDS011;47344;52.374;4.816;2023-02-28T12:31:35;2.4;;;2.21;;
37419;SDS011;47344;52.374;4.816;2023-02-28T12:33:15;3.5;;;2.31;;
37419;SDS011;47344;52.374;4.816;2023-02-28T12:36:40;3.7;;;2.31;;
37419;SDS011;47344;52.374;4.816;2023-02-28T12:38:19;4.2;;;2.5;;
37419;SDS011;47344;52.374;4.816;2023-02-28T12:40:01;4.0;;;2.6;;
37419;SDS011;47344;52.374;4.816;2023-02-28T12:41:41;3.8;;;2.5;;
37419;SDS011;47344;52.374;4.816;2023-02-28T12:43:22;4.0;;;2.5;;
37419;SDS011;47344;52.374;4.816;2023-02-28T12:46:51;4.3;;;3.2;;
37419;SDS011;47344;52.374;4.816;2023-02-28T12:48:38;3.7;;;2.7;;
37419;SDS011;47344;52.374;4.816;2023-02-28T12:50:18;4.2;;;2.5;;
37419;SDS011;47344;52.374;4.816;2023-02-28T12:51:56;4.1;;;2.7;;
37419;SDS011;47344;52.374;4.816;2023-02-28T12:55:27;3.7;;;2.5;;
37419;SDS011;47344;52.374;4.816;2023-02-28T12:57:15;4.0;;;2.21;;
37419;SDS011;47344;52.374;4.816;2023-02-28T12:59:01;4.8;;;2.4;;
37419;SDS011;47344;52.374;4.816;2023-02-28T13:00:49;3.9;;;2.4;;
37419;SDS011;47344;52.374;4.816;2023-02-28T13:03:41;3.5;;;2.31;;
37419;SDS011;47344;52.374;4.816;2023-02-28T13:05:32;4.2;;;2.1;;